createdAt,value
2018-06-22T00:00:17.467Z,0
2018-06-22T00:00:49.583Z,0
2018-06-22T00:01:21.586Z,0
2018-06-22T00:01:53.619Z,0
2018-06-22T00:02:25.630Z,0
2018-06-22T00:02:57.701Z,0
2018-06-22T00:03:29.675Z,0
2018-06-22T00:04:01.706Z,0
2018-06-22T00:04:33.720Z,0
2018-06-22T00:05:05.703Z,0
2018-06-22T00:05:37.751Z,0
2018-06-22T00:06:09.825Z,0
2018-06-22T00:06:41.848Z,0
2018-06-22T00:07:14.622Z,0
2018-06-22T00:07:46.638Z,0
2018-06-22T00:08:18.726Z,0
2018-06-22T00:08:50.730Z,0
2018-06-22T00:09:22.728Z,0
2018-06-22T00:09:54.760Z,0
2018-06-22T00:10:26.778Z,0
2018-06-22T00:10:58.826Z,0
2018-06-22T00:11:30.827Z,0
2018-06-22T00:12:02.884Z,0
2018-06-22T00:12:34.964Z,0
2018-06-22T00:13:06.952Z,0
2018-06-22T00:13:39.009Z,0
2018-06-22T00:14:11.046Z,0
2018-06-22T00:14:43.084Z,0
2018-06-22T00:15:15.103Z,0
2018-06-22T00:15:47.075Z,0
2018-06-22T00:16:19.121Z,0
2018-06-22T00:16:51.183Z,0
2018-06-22T00:17:23.230Z,0
2018-06-22T00:17:55.268Z,0
2018-06-22T00:18:27.266Z,0
2018-06-22T00:18:59.322Z,0
2018-06-22T00:19:31.426Z,0
2018-06-22T00:20:03.451Z,0
2018-06-22T00:20:35.540Z,0
2018-06-22T00:21:07.582Z,0
2018-06-22T00:21:39.655Z,0
2018-06-22T00:22:11.640Z,0
2018-06-22T00:22:43.722Z,0
2018-06-22T00:23:15.758Z,0
2018-06-22T00:23:47.790Z,0
2018-06-22T00:24:19.854Z,0
2018-06-22T00:24:51.881Z,0
2018-06-22T00:25:23.914Z,0
2018-06-22T00:25:55.919Z,0
2018-06-22T00:26:27.953Z,0
2018-06-22T00:26:59.959Z,0
2018-06-22T00:27:32.632Z,0
2018-06-22T00:28:04.666Z,0
2018-06-22T00:28:36.699Z,0
2018-06-22T00:29:08.759Z,0
2018-06-22T00:29:40.770Z,0
2018-06-22T00:30:12.770Z,0
2018-06-22T00:30:44.829Z,0
2018-06-22T00:31:16.879Z,0
2018-06-22T00:31:48.888Z,0
2018-06-22T00:32:20.936Z,0
2018-06-22T00:32:52.940Z,0
2018-06-22T00:33:24.978Z,0
2018-06-22T00:33:56.983Z,0
2018-06-22T00:34:29.050Z,0
2018-06-22T00:35:01.081Z,0
2018-06-22T00:35:33.097Z,0
2018-06-22T00:36:05.871Z,0
2018-06-22T00:36:37.907Z,0
2018-06-22T00:37:09.930Z,0
2018-06-22T00:37:42.555Z,0
2018-06-22T00:38:14.609Z,0
2018-06-22T00:38:46.560Z,0
2018-06-22T00:39:18.597Z,0
2018-06-22T00:39:50.623Z,0
2018-06-22T00:40:23.371Z,0
2018-06-22T00:40:55.421Z,0
2018-06-22T00:41:27.492Z,0
2018-06-22T00:41:59.529Z,0
2018-06-22T00:42:31.568Z,0
2018-06-22T00:43:03.612Z,0
2018-06-22T00:43:35.652Z,0
2018-06-22T00:44:07.662Z,0
2018-06-22T00:44:39.672Z,0
2018-06-22T00:45:11.701Z,0
2018-06-22T00:45:43.757Z,0
2018-06-22T00:46:15.796Z,0
2018-06-22T00:46:47.794Z,0
2018-06-22T00:47:19.825Z,0
2018-06-22T00:47:51.809Z,0
2018-06-22T00:48:23.817Z,0
2018-06-22T00:48:55.952Z,0
2018-06-22T00:49:27.946Z,0
2018-06-22T00:50:00.031Z,0
2018-06-22T00:50:32.047Z,0
2018-06-22T00:51:04.055Z,0
2018-06-22T00:51:36.090Z,0
2018-06-22T00:52:08.094Z,0
2018-06-22T00:52:40.086Z,0
2018-06-22T00:53:12.099Z,0
2018-06-22T00:53:44.254Z,0
2018-06-22T00:54:16.321Z,0
2018-06-22T00:54:48.400Z,0
2018-06-22T00:55:20.435Z,0
2018-06-22T00:55:52.451Z,0
2018-06-22T00:56:24.506Z,0
2018-06-22T00:56:56.519Z,0
2018-06-22T00:57:28.517Z,0
2018-06-22T00:58:00.584Z,0
2018-06-22T00:58:32.615Z,0
2018-06-22T00:59:04.621Z,0
2018-06-22T00:59:36.656Z,0
2018-06-22T01:00:08.665Z,0
2018-06-22T01:00:40.722Z,0
2018-06-22T01:01:12.699Z,0
2018-06-22T01:01:44.699Z,0
2018-06-22T01:02:16.746Z,0
2018-06-22T01:02:48.779Z,0
2018-06-22T01:03:20.774Z,0
2018-06-22T01:03:52.772Z,0
2018-06-22T01:04:24.768Z,0
2018-06-22T01:04:56.797Z,0
2018-06-22T01:05:28.840Z,0
2018-06-22T01:06:00.851Z,0
2018-06-22T01:06:32.913Z,0
2018-06-22T01:07:04.928Z,0
2018-06-22T01:07:36.999Z,0
2018-06-22T01:08:09.061Z,0
2018-06-22T01:08:41.762Z,0
2018-06-22T01:09:13.724Z,0
2018-06-22T01:09:45.908Z,0
2018-06-22T01:10:17.994Z,0
2018-06-22T01:10:50.029Z,0
2018-06-22T01:11:22.041Z,0
2018-06-22T01:11:54.085Z,0
2018-06-22T01:12:26.136Z,0
2018-06-22T01:12:58.210Z,0
2018-06-22T01:13:30.288Z,0
2018-06-22T01:14:02.331Z,0
2018-06-22T01:14:34.377Z,0
2018-06-22T01:15:06.378Z,0
2018-06-22T01:15:38.425Z,0
2018-06-22T01:16:10.466Z,0
2018-06-22T01:16:42.530Z,0
2018-06-22T01:17:14.573Z,0
2018-06-22T01:17:46.612Z,0
2018-06-22T01:18:18.655Z,0
2018-06-22T01:18:50.684Z,0
2018-06-22T01:19:22.762Z,0
2018-06-22T01:19:54.769Z,0
2018-06-22T01:20:26.805Z,0
2018-06-22T01:20:58.804Z,0
2018-06-22T01:21:30.867Z,0
2018-06-22T01:22:02.948Z,0
2018-06-22T01:22:34.978Z,0
2018-06-22T01:23:07.023Z,0
2018-06-22T01:23:38.997Z,0
2018-06-22T01:24:11.003Z,0
2018-06-22T01:24:43.028Z,0
2018-06-22T01:25:15.102Z,0
2018-06-22T01:25:47.128Z,0
2018-06-22T01:26:19.167Z,0
2018-06-22T01:26:51.204Z,0
2018-06-22T01:27:23.210Z,0
2018-06-22T01:27:55.213Z,0
2018-06-22T01:28:27.300Z,0
2018-06-22T01:29:00.667Z,0
2018-06-22T01:29:32.695Z,0
2018-06-22T01:30:04.786Z,0
2018-06-22T01:30:36.825Z,0
2018-06-22T01:31:08.867Z,0
2018-06-22T01:31:40.888Z,0
2018-06-22T01:32:12.940Z,0
2018-06-22T01:32:44.952Z,0
2018-06-22T01:33:16.951Z,0
2018-06-22T01:33:48.994Z,0
2018-06-22T01:34:20.966Z,0
2018-06-22T01:34:53.017Z,0
2018-06-22T01:35:25.138Z,0
2018-06-22T01:35:57.193Z,0
2018-06-22T01:36:29.173Z,0
2018-06-22T01:37:01.846Z,0
2018-06-22T01:37:33.830Z,0
2018-06-22T01:38:05.873Z,0
2018-06-22T01:38:37.925Z,0
2018-06-22T01:39:09.935Z,0
2018-06-22T01:39:42.005Z,0
2018-06-22T01:40:14.066Z,0
2018-06-22T01:40:46.131Z,0
2018-06-22T01:41:18.183Z,0
2018-06-22T01:41:50.190Z,0
2018-06-22T01:42:22.178Z,0
2018-06-22T01:42:54.157Z,0
2018-06-22T01:43:26.153Z,0
2018-06-22T01:43:58.191Z,0
2018-06-22T01:44:30.232Z,0
2018-06-22T01:45:02.261Z,0
2018-06-22T01:45:34.292Z,0
2018-06-22T01:46:06.321Z,0
2018-06-22T01:46:38.362Z,0
2018-06-22T01:47:10.407Z,0
2018-06-22T01:47:42.439Z,0
2018-06-22T01:48:14.498Z,0
2018-06-22T01:48:46.520Z,0
2018-06-22T01:49:18.646Z,0
2018-06-22T01:49:50.733Z,0
2018-06-22T01:50:22.728Z,0
2018-06-22T01:50:54.753Z,0
2018-06-22T01:51:26.842Z,0
2018-06-22T01:51:58.899Z,0
2018-06-22T01:52:30.916Z,0
2018-06-22T01:53:02.992Z,0
2018-06-22T01:53:35.054Z,0
2018-06-22T01:54:07.102Z,0
2018-06-22T01:54:39.092Z,0
2018-06-22T01:55:11.129Z,0
2018-06-22T01:55:43.168Z,0
2018-06-22T01:56:15.194Z,0
2018-06-22T01:56:47.238Z,0
2018-06-22T01:57:19.285Z,0
2018-06-22T01:57:51.367Z,0
2018-06-22T01:58:23.377Z,0
2018-06-22T01:58:55.415Z,0
2018-06-22T01:59:27.439Z,0
2018-06-22T01:59:59.537Z,0
2018-06-22T02:00:31.566Z,0
2018-06-22T02:01:03.588Z,0
2018-06-22T02:01:35.613Z,0
2018-06-22T02:02:07.589Z,0
2018-06-22T02:02:39.602Z,0
2018-06-22T02:03:11.639Z,0
2018-06-22T02:03:43.641Z,0
2018-06-22T02:04:15.678Z,0
2018-06-22T02:04:47.725Z,0
2018-06-22T02:05:19.834Z,0
2018-06-22T02:05:51.930Z,0
2018-06-22T02:06:23.910Z,0
2018-06-22T02:06:56.127Z,0
2018-06-22T02:07:28.265Z,0
2018-06-22T02:08:00.313Z,0
2018-06-22T02:08:33.000Z,0
2018-06-22T02:09:05.058Z,0
2018-06-22T02:09:37.103Z,0
2018-06-22T02:10:09.083Z,0
2018-06-22T02:10:41.097Z,0
2018-06-22T02:11:13.122Z,0
2018-06-22T02:11:45.170Z,0
2018-06-22T02:12:17.225Z,0
2018-06-22T02:12:49.255Z,0
2018-06-22T02:13:21.285Z,0
2018-06-22T02:13:53.303Z,0
2018-06-22T02:14:25.332Z,0
2018-06-22T02:14:57.460Z,0
2018-06-22T02:15:29.463Z,0
2018-06-22T02:16:01.482Z,0
2018-06-22T02:16:33.575Z,0
2018-06-22T02:17:05.640Z,0
2018-06-22T02:17:37.725Z,0
2018-06-22T02:18:09.779Z,0
2018-06-22T02:18:41.773Z,0
2018-06-22T02:19:13.800Z,0
2018-06-22T02:19:45.830Z,0
2018-06-22T02:20:17.851Z,0
2018-06-22T02:20:49.871Z,0
2018-06-22T02:21:21.890Z,0
2018-06-22T02:21:53.928Z,0
2018-06-22T02:22:25.956Z,0
2018-06-22T02:22:58.080Z,0
2018-06-22T02:23:30.099Z,0
2018-06-22T02:24:02.129Z,0
2018-06-22T02:24:34.166Z,0
2018-06-22T02:25:06.257Z,0
2018-06-22T02:25:38.270Z,0
2018-06-22T02:26:10.316Z,0
2018-06-22T02:26:42.402Z,0
2018-06-22T02:27:14.412Z,0
2018-06-22T02:27:46.446Z,0
2018-06-22T02:28:18.490Z,0
2018-06-22T02:28:50.538Z,0
2018-06-22T02:29:22.574Z,0
2018-06-22T02:29:54.585Z,0
2018-06-22T02:30:26.611Z,0
2018-06-22T02:30:58.708Z,0
2018-06-22T02:31:30.726Z,0
2018-06-22T02:32:02.760Z,0
2018-06-22T02:32:35.519Z,0
2018-06-22T02:33:07.560Z,0
2018-06-22T02:33:39.559Z,0
2018-06-22T02:34:11.620Z,0
2018-06-22T02:34:43.821Z,0
2018-06-22T02:35:15.824Z,0
2018-06-22T02:35:47.875Z,0
2018-06-22T02:36:20.008Z,0
2018-06-22T02:36:52.070Z,0
2018-06-22T02:37:24.123Z,0
2018-06-22T02:37:56.136Z,0
2018-06-22T02:38:28.195Z,0
2018-06-22T02:39:00.248Z,0
2018-06-22T02:39:32.242Z,0
2018-06-22T02:40:04.279Z,0
2018-06-22T02:40:36.361Z,0
2018-06-22T02:41:08.494Z,0
2018-06-22T02:41:40.672Z,0
2018-06-22T02:42:12.684Z,0
2018-06-22T02:42:44.717Z,0
2018-06-22T02:43:16.780Z,0
2018-06-22T02:43:48.835Z,0
2018-06-22T02:44:20.920Z,0
2018-06-22T02:44:52.951Z,0
2018-06-22T02:45:24.958Z,0
2018-06-22T02:45:57.066Z,0
2018-06-22T02:46:29.112Z,0
2018-06-22T02:47:01.142Z,0
2018-06-22T02:47:33.145Z,0
2018-06-22T02:48:06.010Z,0
2018-06-22T02:48:38.009Z,0
2018-06-22T02:49:10.067Z,0
2018-06-22T02:49:42.091Z,0
2018-06-22T02:50:14.701Z,0
2018-06-22T02:50:46.725Z,0
2018-06-22T02:51:18.792Z,0
2018-06-22T02:51:50.844Z,0
2018-06-22T02:52:22.880Z,0
2018-06-22T02:52:54.926Z,0
2018-06-22T02:53:26.956Z,0
2018-06-22T02:53:58.970Z,0
2018-06-22T02:54:30.990Z,0
2018-06-22T02:55:03.171Z,0
2018-06-22T02:55:35.255Z,0
2018-06-22T02:56:07.272Z,0
2018-06-22T02:56:39.357Z,0
2018-06-22T02:57:11.376Z,0
2018-06-22T02:57:43.470Z,0
2018-06-22T02:58:15.489Z,0
2018-06-22T02:58:47.501Z,0
2018-06-22T02:59:19.515Z,0
2018-06-22T02:59:51.735Z,0
2018-06-22T03:00:23.859Z,0
2018-06-22T03:00:55.964Z,0
2018-06-22T03:01:27.974Z,0
2018-06-22T03:01:59.965Z,0
2018-06-22T03:02:31.977Z,0
2018-06-22T03:03:03.973Z,0
2018-06-22T03:03:35.954Z,0
2018-06-22T03:04:08.192Z,0
2018-06-22T03:04:40.182Z,0
2018-06-22T03:05:12.222Z,0
2018-06-22T03:05:44.279Z,0
2018-06-22T03:06:16.323Z,0
2018-06-22T03:06:48.314Z,0
2018-06-22T03:07:20.332Z,0
2018-06-22T03:07:52.354Z,0
2018-06-22T03:08:25.028Z,0
2018-06-22T03:08:57.079Z,0
2018-06-22T03:09:29.142Z,0
2018-06-22T03:10:01.154Z,0
2018-06-22T03:10:33.188Z,0
2018-06-22T03:11:05.222Z,0
2018-06-22T03:11:37.832Z,0
2018-06-22T03:12:09.864Z,0
2018-06-22T03:12:41.895Z,0
2018-06-22T03:13:13.935Z,0
2018-06-22T03:13:45.965Z,0
2018-06-22T03:14:18.619Z,0
2018-06-22T03:14:50.664Z,0
2018-06-22T03:15:22.696Z,0
2018-06-22T03:15:54.735Z,0
2018-06-22T03:16:26.735Z,0
2018-06-22T03:16:58.820Z,0
2018-06-22T03:17:30.817Z,0
2018-06-22T03:18:02.850Z,0
2018-06-22T03:18:34.914Z,0
2018-06-22T03:19:06.920Z,0
2018-06-22T03:19:38.971Z,0
2018-06-22T03:20:11.013Z,0
2018-06-22T03:20:43.036Z,0
2018-06-22T03:21:15.065Z,0
2018-06-22T03:21:47.122Z,0
2018-06-22T03:22:19.142Z,0
2018-06-22T03:22:51.176Z,0
2018-06-22T03:23:23.194Z,0
2018-06-22T03:23:55.204Z,0
2018-06-22T03:24:27.228Z,0
2018-06-22T03:24:59.231Z,0
2018-06-22T03:25:31.267Z,0
2018-06-22T03:26:03.296Z,0
2018-06-22T03:26:35.303Z,0
2018-06-22T03:27:07.383Z,0
2018-06-22T03:27:39.449Z,0
2018-06-22T03:28:11.500Z,0
2018-06-22T03:28:43.539Z,0
2018-06-22T03:29:15.579Z,0
2018-06-22T03:29:47.617Z,0
2018-06-22T03:30:19.648Z,0
2018-06-22T03:30:51.674Z,0
2018-06-22T03:31:23.726Z,0
2018-06-22T03:31:55.868Z,0
2018-06-22T03:32:27.824Z,0
2018-06-22T03:33:00.363Z,0
2018-06-22T03:33:32.415Z,0
2018-06-22T03:34:04.505Z,0
2018-06-22T03:34:36.601Z,0
2018-06-22T03:35:08.661Z,0
2018-06-22T03:35:40.686Z,0
2018-06-22T03:36:12.721Z,0
2018-06-22T03:36:44.807Z,0
2018-06-22T03:37:16.822Z,0
2018-06-22T03:37:48.872Z,0
2018-06-22T03:38:20.887Z,0
2018-06-22T03:38:52.913Z,0
2018-06-22T03:39:25.056Z,0
2018-06-22T03:39:57.035Z,0
2018-06-22T03:40:29.062Z,0
2018-06-22T03:41:01.085Z,0
2018-06-22T03:41:33.099Z,0
2018-06-22T03:42:05.119Z,0
2018-06-22T03:42:37.149Z,0
2018-06-22T03:43:09.187Z,0
2018-06-22T03:43:41.292Z,0
2018-06-22T03:44:13.334Z,0
2018-06-22T03:44:45.396Z,0
2018-06-22T03:45:17.430Z,0
2018-06-22T03:45:49.439Z,0
2018-06-22T03:46:21.557Z,0
2018-06-22T03:46:53.564Z,0
2018-06-22T03:47:25.572Z,0
2018-06-22T03:47:57.533Z,0
2018-06-22T03:48:29.532Z,0
2018-06-22T03:49:01.565Z,0
2018-06-22T03:49:33.578Z,0
2018-06-22T03:50:05.600Z,0
2018-06-22T03:50:37.648Z,0
2018-06-22T03:51:09.663Z,0
2018-06-22T03:51:41.667Z,0
2018-06-22T03:52:13.734Z,0
2018-06-22T03:52:45.724Z,0
2018-06-22T03:53:18.644Z,0
2018-06-22T03:53:50.648Z,0
2018-06-22T03:54:22.689Z,0
2018-06-22T03:54:54.750Z,0
2018-06-22T03:55:26.781Z,0
2018-06-22T03:55:58.817Z,0
2018-06-22T03:56:30.853Z,0
2018-06-22T03:57:02.887Z,0
2018-06-22T03:57:34.936Z,0
2018-06-22T03:58:06.998Z,0
2018-06-22T03:58:39.041Z,0
2018-06-22T03:59:11.099Z,0
2018-06-22T03:59:43.133Z,0
2018-06-22T04:00:15.174Z,0
2018-06-22T04:00:47.279Z,0
2018-06-22T04:01:19.303Z,0
2018-06-22T04:01:51.341Z,0
2018-06-22T04:02:23.329Z,0
2018-06-22T04:02:55.378Z,0
2018-06-22T04:03:27.394Z,0
2018-06-22T04:03:59.379Z,0
2018-06-22T04:04:31.425Z,0
2018-06-22T04:05:03.436Z,0
2018-06-22T04:05:35.498Z,0
2018-06-22T04:06:07.595Z,0
2018-06-22T04:06:39.638Z,0
2018-06-22T04:07:11.690Z,0
2018-06-22T04:07:43.704Z,0
2018-06-22T04:08:15.909Z,0
2018-06-22T04:08:47.918Z,0
2018-06-22T04:09:20.009Z,0
2018-06-22T04:09:52.054Z,0
2018-06-22T04:10:24.068Z,0
2018-06-22T04:10:56.063Z,0
2018-06-22T04:11:28.068Z,0
2018-06-22T04:12:00.109Z,0
2018-06-22T04:12:32.213Z,0
2018-06-22T04:13:04.231Z,0
2018-06-22T04:13:37.064Z,0
2018-06-22T04:14:09.062Z,0
2018-06-22T04:14:41.107Z,0
2018-06-22T04:15:13.166Z,0
2018-06-22T04:15:45.189Z,0
2018-06-22T04:16:17.221Z,0
2018-06-22T04:16:49.258Z,0
2018-06-22T04:17:21.295Z,0
2018-06-22T04:17:53.372Z,0
2018-06-22T04:18:25.951Z,0
2018-06-22T04:18:57.973Z,0
2018-06-22T04:19:29.980Z,0
2018-06-22T04:20:02.029Z,0
2018-06-22T04:20:34.139Z,0
2018-06-22T04:21:06.128Z,5
2018-06-22T04:21:38.153Z,5
2018-06-22T04:22:10.199Z,5
2018-06-22T04:22:42.210Z,5
2018-06-22T04:23:14.232Z,5
2018-06-22T04:23:46.237Z,5
2018-06-22T04:24:18.383Z,5
2018-06-22T04:24:50.355Z,5
2018-06-22T04:25:22.448Z,5
2018-06-22T04:25:54.442Z,5
2018-06-22T04:26:26.520Z,5
2018-06-22T04:26:58.545Z,5
2018-06-22T04:27:30.619Z,5
2018-06-22T04:28:02.652Z,5
2018-06-22T04:28:34.652Z,5
2018-06-22T04:29:06.698Z,5
2018-06-22T04:29:38.728Z,5
2018-06-22T04:30:10.770Z,5
2018-06-22T04:30:42.789Z,5
2018-06-22T04:31:14.830Z,5
2018-06-22T04:31:46.831Z,5
2018-06-22T04:32:18.895Z,5
2018-06-22T04:32:50.911Z,5
2018-06-22T04:33:23.549Z,5
2018-06-22T04:33:55.541Z,5
2018-06-22T04:34:27.553Z,5
2018-06-22T04:34:59.672Z,5
2018-06-22T04:35:31.720Z,5
2018-06-22T04:36:03.780Z,5
2018-06-22T04:36:35.825Z,5
2018-06-22T04:37:07.920Z,5
2018-06-22T04:37:40.793Z,5
2018-06-22T04:38:12.834Z,5
2018-06-22T04:38:44.946Z,5
2018-06-22T04:39:16.904Z,5
2018-06-22T04:39:48.954Z,5
2018-06-22T04:40:21.011Z,5
2018-06-22T04:40:53.060Z,5
2018-06-22T04:41:25.139Z,5
2018-06-22T04:41:57.163Z,5
2018-06-22T04:42:29.179Z,5
2018-06-22T04:43:01.227Z,5
2018-06-22T04:43:33.257Z,5
2018-06-22T04:44:05.294Z,0
2018-06-22T04:44:37.290Z,0
2018-06-22T04:45:09.316Z,0
2018-06-22T04:45:41.343Z,0
2018-06-22T04:46:13.363Z,0
2018-06-22T04:46:45.954Z,0
2018-06-22T04:47:17.975Z,0
2018-06-22T04:47:50.004Z,5
2018-06-22T04:48:22.042Z,0
2018-06-22T04:48:54.080Z,5
2018-06-22T04:49:26.181Z,0
2018-06-22T04:49:58.224Z,0
2018-06-22T04:50:30.238Z,5
2018-06-22T04:51:02.289Z,0
2018-06-22T04:51:34.326Z,0
2018-06-22T04:52:06.365Z,0
2018-06-22T04:52:38.403Z,0
2018-06-22T04:53:10.454Z,0
2018-06-22T04:53:42.458Z,0
2018-06-22T04:54:14.471Z,0
2018-06-22T04:54:46.489Z,0
2018-06-22T04:55:18.631Z,0
2018-06-22T04:55:50.635Z,0
2018-06-22T04:56:22.801Z,0
2018-06-22T04:56:54.795Z,0
2018-06-22T04:57:26.816Z,0
2018-06-22T04:57:58.954Z,0
2018-06-22T04:58:30.951Z,0
2018-06-22T04:59:03.005Z,0
2018-06-22T04:59:35.039Z,0
2018-06-22T05:00:07.084Z,0
2018-06-22T05:00:39.143Z,0
2018-06-22T05:01:11.179Z,0
2018-06-22T05:01:43.171Z,0
2018-06-22T05:02:15.291Z,5
2018-06-22T05:02:47.309Z,5
2018-06-22T05:03:19.344Z,5
2018-06-22T05:03:51.433Z,10
2018-06-22T05:04:23.452Z,10
2018-06-22T05:04:55.441Z,10
2018-06-22T05:05:27.455Z,10
2018-06-22T05:05:59.481Z,10
2018-06-22T05:06:31.484Z,10
2018-06-22T05:07:03.525Z,10
2018-06-22T05:07:35.518Z,10
2018-06-22T05:08:07.539Z,10
2018-06-22T05:08:39.569Z,10
2018-06-22T05:09:11.650Z,15
2018-06-22T05:09:43.636Z,15
2018-06-22T05:10:15.730Z,15
2018-06-22T05:10:47.923Z,15
2018-06-22T05:11:19.901Z,20
2018-06-22T05:11:51.944Z,15
2018-06-22T05:12:24.018Z,15
2018-06-22T05:12:56.022Z,15
2018-06-22T05:13:28.047Z,15
2018-06-22T05:14:00.024Z,15
2018-06-22T05:14:32.026Z,20
2018-06-22T05:15:04.042Z,20
2018-06-22T05:15:36.187Z,15
2018-06-22T05:16:08.208Z,15
2018-06-22T05:16:40.252Z,15
2018-06-22T05:17:12.380Z,15
2018-06-22T05:17:44.545Z,15
2018-06-22T05:18:16.570Z,15
2018-06-22T05:18:48.538Z,20
2018-06-22T05:19:20.560Z,20
2018-06-22T05:19:52.581Z,20
2018-06-22T05:20:24.608Z,20
2018-06-22T05:20:56.620Z,20
2018-06-22T05:21:28.665Z,20
2018-06-22T05:22:00.683Z,15
2018-06-22T05:22:32.769Z,15
2018-06-22T05:23:04.802Z,15
2018-06-22T05:23:36.857Z,15
2018-06-22T05:24:08.877Z,15
2018-06-22T05:24:41.095Z,15
2018-06-22T05:25:13.168Z,15
2018-06-22T05:25:45.267Z,20
2018-06-22T05:26:17.488Z,20
2018-06-22T05:26:49.870Z,25
2018-06-22T05:27:23.535Z,25
2018-06-22T05:27:55.683Z,25
2018-06-22T05:28:27.738Z,30
2018-06-22T05:28:59.736Z,30
2018-06-22T05:29:31.911Z,30
2018-06-22T05:30:03.861Z,35
2018-06-22T05:30:35.846Z,35
2018-06-22T05:31:07.857Z,40
2018-06-22T05:31:39.872Z,40
2018-06-22T05:32:11.892Z,45
2018-06-22T05:32:43.951Z,50
2018-06-22T05:33:15.962Z,55
2018-06-22T05:33:48.029Z,55
2018-06-22T05:34:20.068Z,60
2018-06-22T05:34:52.099Z,65
2018-06-22T05:35:24.129Z,65
2018-06-22T05:35:56.409Z,65
2018-06-22T05:36:28.376Z,70
2018-06-22T05:37:00.423Z,70
2018-06-22T05:37:32.453Z,70
2018-06-22T05:38:04.506Z,75
2018-06-22T05:38:36.524Z,70
2018-06-22T05:39:08.536Z,70
2018-06-22T05:39:40.527Z,60
2018-06-22T05:40:12.593Z,45
2018-06-22T05:40:44.681Z,35
2018-06-22T05:41:16.722Z,30
2018-06-22T05:41:48.765Z,25
2018-06-22T05:42:20.774Z,20
2018-06-22T05:42:52.826Z,25
2018-06-22T05:43:31.491Z,35
2018-06-22T05:44:03.500Z,40
2018-06-22T05:44:35.513Z,50
2018-06-22T05:45:07.546Z,50
2018-06-22T05:45:39.654Z,45
2018-06-22T05:46:11.679Z,45
2018-06-22T05:46:46.760Z,45
2018-06-22T05:47:19.755Z,45
2018-06-22T05:47:55.082Z,45
2018-06-22T05:48:29.186Z,40
2018-06-22T05:49:01.935Z,35
2018-06-22T05:49:34.557Z,25
2018-06-22T05:50:07.310Z,25
2018-06-22T05:50:40.513Z,30
2018-06-22T05:51:13.650Z,35
2018-06-22T05:51:47.885Z,35
2018-06-22T05:52:21.838Z,40
2018-06-22T05:52:54.073Z,45
2018-06-22T05:53:27.294Z,45
2018-06-22T05:54:00.034Z,45
2018-06-22T05:54:32.972Z,40
2018-06-22T05:55:05.354Z,35
2018-06-22T05:55:37.395Z,30
2018-06-22T05:56:09.479Z,25
2018-06-22T05:56:41.602Z,25
2018-06-22T05:57:13.594Z,25
2018-06-22T05:57:45.577Z,20
2018-06-22T05:58:21.890Z,20
2018-06-22T05:58:53.934Z,20
2018-06-22T05:59:25.927Z,15
2018-06-22T05:59:57.993Z,15
2018-06-22T06:00:30.031Z,15
2018-06-22T06:01:02.075Z,15
2018-06-22T06:01:34.086Z,15
2018-06-22T06:02:06.222Z,15
2018-06-22T06:02:38.423Z,15
2018-06-22T06:03:10.503Z,15
2018-06-22T06:03:42.575Z,20
2018-06-22T06:04:14.594Z,15
2018-06-22T06:04:46.618Z,15
2018-06-22T06:05:18.762Z,15
2018-06-22T06:05:50.813Z,15
2018-06-22T06:06:22.830Z,20
2018-06-22T06:06:54.870Z,15
2018-06-22T06:07:26.818Z,15
2018-06-22T06:07:58.836Z,15
2018-06-22T06:08:30.894Z,15
2018-06-22T06:09:03.035Z,15
2018-06-22T06:09:35.603Z,15
2018-06-22T06:10:07.624Z,15
2018-06-22T06:10:39.637Z,15
2018-06-22T06:11:11.787Z,15
2018-06-22T06:11:43.835Z,15
2018-06-22T06:12:15.848Z,15
2018-06-22T06:12:47.872Z,10
2018-06-22T06:13:19.935Z,10
2018-06-22T06:13:52.016Z,10
2018-06-22T06:14:24.080Z,10
2018-06-22T06:14:56.127Z,10
2018-06-22T06:15:28.224Z,5
